SLI1460 MMMX-MMQT
Flight info
| Callsign | SLI1460 |
|---|---|
| Flight time | 0h 55m |
| Altitude | 24000 |
| Route | SEBON3A SEBON UT144 QET |
| Aircraft | E190/M-SDE3GILORVW/S |
Departure
| Time | 2026-05-05 06:10 |
|---|---|
| Airport | Mexico City Benito Juárez International Airport (MMMX) |
Arrival
| Time | 2026-05-05 07:05 |
|---|---|
| Airport | Querétaro Intercontinental Airport (MMQT) |
| Time | Latitude | Longitude | Altitude | Speed | Heading |
|---|---|---|---|---|---|
| 2026-05-05 05:57 | 19.42175 | -99.08110 | 7302 ft | 3 kts | 347° |
| 2026-05-05 05:57 | 19.42158 | -99.08103 | 7302 ft | 0 kts | 314° |
| 2026-05-05 06:01 | 19.42160 | -99.08107 | 7301 ft | 2 kts | 300° |
| 2026-05-05 06:01 | 19.42171 | -99.08127 | 7302 ft | 5 kts | 302° |
| 2026-05-05 06:01 | 19.42195 | -99.08167 | 7301 ft | 8 kts | 302° |
| 2026-05-05 06:02 | 19.42236 | -99.08203 | 7301 ft | 7 kts | 350° |
| 2026-05-05 06:02 | 19.42281 | -99.08203 | 7301 ft | 6 kts | 5° |
| 2026-05-05 06:02 | 19.42322 | -99.08202 | 7301 ft | 6 kts | 355° |
| 2026-05-05 06:02 | 19.42351 | -99.08220 | 7301 ft | 4 kts | 324° |
| 2026-05-05 06:03 | 19.42374 | -99.08237 | 7301 ft | 4 kts | 326° |
| 2026-05-05 06:03 | 19.42391 | -99.08264 | 7301 ft | 5 kts | 293° |
| 2026-05-05 06:03 | 19.42407 | -99.08304 | 7301 ft | 7 kts | 293° |
| 2026-05-05 06:03 | 19.42428 | -99.08356 | 7301 ft | 9 kts | 293° |
| 2026-05-05 06:04 | 19.42454 | -99.08419 | 7301 ft | 10 kts | 293° |
| 2026-05-05 06:04 | 19.42478 | -99.08483 | 7301 ft | 9 kts | 292° |
| 2026-05-05 06:04 | 19.42497 | -99.08540 | 7301 ft | 8 kts | 287° |
| 2026-05-05 06:04 | 19.42510 | -99.08590 | 7301 ft | 7 kts | 285° |
| 2026-05-05 06:05 | 19.42522 | -99.08634 | 7301 ft | 6 kts | 291° |
| 2026-05-05 06:05 | 19.42534 | -99.08664 | 7301 ft | 0 kts | 293° |
| 2026-05-05 06:06 | 19.42543 | -99.08686 | 7301 ft | 7 kts | 293° |
| 2026-05-05 06:06 | 19.42573 | -99.08761 | 7301 ft | 15 kts | 293° |
| 2026-05-05 06:06 | 19.42623 | -99.08883 | 7301 ft | 19 kts | 292° |
| 2026-05-05 06:07 | 19.42658 | -99.08976 | 7301 ft | 10 kts | 292° |
| 2026-05-05 06:07 | 19.42685 | -99.09040 | 7301 ft | 9 kts | 297° |
| 2026-05-05 06:07 | 19.42734 | -99.09059 | 7301 ft | 7 kts | 8° |
| 2026-05-05 06:07 | 19.42770 | -99.09028 | 7301 ft | 6 kts | 57° |
| 2026-05-05 06:08 | 19.42781 | -99.09009 | 7302 ft | 0 kts | 58° |
| 2026-05-05 06:08 | 19.42782 | -99.09007 | 7301 ft | 2 kts | 58° |
| 2026-05-05 06:09 | 19.42826 | -99.08929 | 7302 ft | 33 kts | 59° |
| 2026-05-05 06:09 | 19.43030 | -99.08565 | 7300 ft | 81 kts | 60° |
| 2026-05-05 06:09 | 19.43395 | -99.07917 | 7304 ft | 122 kts | 58° |
| 2026-05-05 06:09 | 19.43893 | -99.07032 | 7303 ft | 156 kts | 59° |
| 2026-05-05 06:10 | 19.44483 | -99.05987 | 7380 ft | 177 kts | 60° |
| 2026-05-05 06:10 | 19.45144 | -99.04839 | 7778 ft | 186 kts | 59° |
| 2026-05-05 06:10 | 19.45864 | -99.03654 | 8608 ft | 196 kts | 56° |
| 2026-05-05 06:10 | 19.46673 | -99.02465 | 9059 ft | 207 kts | 57° |
| 2026-05-05 06:11 | 19.47408 | -99.01028 | 9179 ft | 233 kts | 65° |
| 2026-05-05 06:11 | 19.48132 | -98.99441 | 9604 ft | 241 kts | 69° |
| 2026-05-05 06:11 | 19.48385 | -98.97676 | 10090 ft | 255 kts | 100° |
| 2026-05-05 06:11 | 19.47663 | -98.95877 | 10225 ft | 280 kts | 131° |
| 2026-05-05 06:12 | 19.46065 | -98.94631 | 10558 ft | 297 kts | 160° |
| 2026-05-05 06:12 | 19.43989 | -98.94335 | 10984 ft | 311 kts | 187° |
| 2026-05-05 06:12 | 19.41921 | -98.95121 | 11517 ft | 322 kts | 214° |
| 2026-05-05 06:12 | 19.40383 | -98.96813 | 12172 ft | 329 kts | 239° |
| 2026-05-05 06:13 | 19.39655 | -98.99120 | 12826 ft | 335 kts | 264° |
| 2026-05-05 06:13 | 19.39571 | -99.01604 | 13478 ft | 340 kts | 265° |
| 2026-05-05 06:13 | 19.39022 | -99.04064 | 14146 ft | 345 kts | 252° |
| 2026-05-05 06:13 | 19.38253 | -99.06488 | 14770 ft | 349 kts | 252° |
| 2026-05-05 06:14 | 19.37502 | -99.08948 | 15408 ft | 353 kts | 253° |
| 2026-05-05 06:14 | 19.37232 | -99.09897 | 15647 ft | 355 kts | 254° |
| 2026-05-05 06:14 | 19.36580 | -99.12318 | 16220 ft | 360 kts | 255° |
| 2026-05-05 06:14 | 19.35927 | -99.14896 | 16779 ft | 364 kts | 257° |
| 2026-05-05 06:15 | 19.35465 | -99.17551 | 17312 ft | 369 kts | 261° |
| 2026-05-05 06:15 | 19.35043 | -99.20252 | 17829 ft | 373 kts | 261° |
| 2026-05-05 06:15 | 19.34640 | -99.22989 | 18324 ft | 378 kts | 262° |
| 2026-05-05 06:15 | 19.34234 | -99.25761 | 18794 ft | 381 kts | 262° |
| 2026-05-05 06:16 | 19.33825 | -99.28543 | 19280 ft | 383 kts | 262° |
| 2026-05-05 06:16 | 19.33421 | -99.31298 | 19808 ft | 385 kts | 261° |
| 2026-05-05 06:16 | 19.33008 | -99.34102 | 20343 ft | 386 kts | 262° |
| 2026-05-05 06:16 | 19.32778 | -99.36970 | 20854 ft | 388 kts | 272° |
| 2026-05-05 06:17 | 19.32990 | -99.39789 | 21339 ft | 389 kts | 278° |
| 2026-05-05 06:17 | 19.33394 | -99.42635 | 21818 ft | 391 kts | 281° |
| 2026-05-05 06:17 | 19.34074 | -99.45438 | 22273 ft | 392 kts | 287° |
| 2026-05-05 06:17 | 19.34825 | -99.48217 | 22700 ft | 394 kts | 287° |
| 2026-05-05 06:18 | 19.35614 | -99.51008 | 23109 ft | 396 kts | 287° |
| 2026-05-05 06:18 | 19.36406 | -99.53810 | 23487 ft | 398 kts | 287° |
| 2026-05-05 06:18 | 19.37188 | -99.56633 | 23852 ft | 400 kts | 284° |
| 2026-05-05 06:18 | 19.37674 | -99.59533 | 24019 ft | 396 kts | 277° |
| 2026-05-05 06:19 | 19.37921 | -99.62417 | 24073 ft | 399 kts | 274° |
| 2026-05-05 06:19 | 19.37882 | -99.65368 | 24110 ft | 402 kts | 267° |
| 2026-05-05 06:19 | 19.37741 | -99.68320 | 24093 ft | 402 kts | 266° |
| 2026-05-05 06:19 | 19.37562 | -99.71278 | 24060 ft | 401 kts | 266° |
| 2026-05-05 06:20 | 19.37381 | -99.74227 | 24020 ft | 402 kts | 266° |
| 2026-05-05 06:20 | 19.37196 | -99.77186 | 23988 ft | 402 kts | 266° |
| 2026-05-05 06:20 | 19.37014 | -99.80137 | 23960 ft | 402 kts | 266° |
| 2026-05-05 06:20 | 19.36827 | -99.83101 | 23924 ft | 403 kts | 266° |
| 2026-05-05 06:21 | 19.36640 | -99.86061 | 23886 ft | 403 kts | 266° |
| 2026-05-05 06:21 | 19.36454 | -99.89030 | 23848 ft | 403 kts | 266° |
| 2026-05-05 06:21 | 19.36266 | -99.91993 | 23818 ft | 403 kts | 266° |
| 2026-05-05 06:21 | 19.36081 | -99.94916 | 23780 ft | 403 kts | 266° |
| 2026-05-05 06:22 | 19.35892 | -99.97882 | 23774 ft | 404 kts | 266° |
| 2026-05-05 06:22 | 19.35703 | -100.00855 | 23770 ft | 404 kts | 266° |
| 2026-05-05 06:22 | 19.35513 | -100.03823 | 23769 ft | 404 kts | 266° |
| 2026-05-05 06:22 | 19.35323 | -100.06804 | 23765 ft | 405 kts | 266° |
| 2026-05-05 06:23 | 19.35161 | -100.09785 | 23756 ft | 405 kts | 271° |
| 2026-05-05 06:23 | 19.35674 | -100.12699 | 23782 ft | 404 kts | 292° |
| 2026-05-05 06:23 | 19.37117 | -100.15224 | 23882 ft | 403 kts | 313° |
| 2026-05-05 06:23 | 19.39299 | -100.17053 | 23971 ft | 401 kts | 332° |
| 2026-05-05 06:24 | 19.41760 | -100.18362 | 24040 ft | 401 kts | 336° |
| 2026-05-05 06:24 | 19.44331 | -100.19606 | 24076 ft | 401 kts | 336° |
| 2026-05-05 06:24 | 19.46830 | -100.20826 | 24087 ft | 401 kts | 333° |
| 2026-05-05 06:24 | 19.49255 | -100.22290 | 24086 ft | 401 kts | 331° |
| 2026-05-05 06:25 | 19.51670 | -100.23763 | 24073 ft | 400 kts | 330° |
| 2026-05-05 06:25 | 19.54072 | -100.25266 | 24079 ft | 400 kts | 330° |
| 2026-05-05 06:25 | 19.56491 | -100.26739 | 24079 ft | 400 kts | 335° |
| 2026-05-05 06:25 | 19.59146 | -100.27583 | 24080 ft | 397 kts | 352° |
| 2026-05-05 06:26 | 19.61856 | -100.27902 | 24086 ft | 397 kts | 356° |
| 2026-05-05 06:26 | 19.64613 | -100.28075 | 24079 ft | 396 kts | 358° |
| 2026-05-05 06:26 | 19.67359 | -100.28030 | 24080 ft | 395 kts | 4° |
| 2026-05-05 06:26 | 19.70110 | -100.27881 | 24087 ft | 396 kts | 4° |
| 2026-05-05 06:27 | 19.72864 | -100.27706 | 24082 ft | 395 kts | 4° |
| 2026-05-05 06:27 | 19.78364 | -100.27348 | 24072 ft | 395 kts | 4° |
| 2026-05-05 06:27 | 19.81109 | -100.27168 | 24077 ft | 395 kts | 4° |
| 2026-05-05 06:28 | 19.83862 | -100.26988 | 24083 ft | 396 kts | 4° |
| 2026-05-05 06:28 | 19.86612 | -100.26807 | 24071 ft | 394 kts | 4° |
| 2026-05-05 06:28 | 19.89340 | -100.26629 | 24061 ft | 393 kts | 4° |
| 2026-05-05 06:28 | 19.92075 | -100.26449 | 24068 ft | 394 kts | 4° |
| 2026-05-05 06:29 | 19.94782 | -100.26272 | 24068 ft | 394 kts | 4° |
| 2026-05-05 06:29 | 19.97523 | -100.26093 | 24065 ft | 394 kts | 4° |
| 2026-05-05 06:29 | 20.00263 | -100.25952 | 24058 ft | 394 kts | 5° |
| 2026-05-05 06:29 | 20.02972 | -100.25570 | 24055 ft | 393 kts | 16° |
| 2026-05-05 06:30 | 20.05535 | -100.24556 | 23755 ft | 392 kts | 24° |
| 2026-05-05 06:30 | 20.08026 | -100.23362 | 22806 ft | 395 kts | 25° |
| 2026-05-05 06:30 | 20.10536 | -100.22104 | 21968 ft | 397 kts | 25° |
| 2026-05-05 06:30 | 20.13092 | -100.21013 | 21300 ft | 394 kts | 22° |
| 2026-05-05 06:31 | 20.15638 | -100.19962 | 20652 ft | 390 kts | 22° |
| 2026-05-05 06:31 | 20.18134 | -100.18960 | 20039 ft | 387 kts | 22° |
| 2026-05-05 06:31 | 20.20638 | -100.17954 | 19416 ft | 384 kts | 22° |
| 2026-05-05 06:31 | 20.23131 | -100.16954 | 18817 ft | 380 kts | 22° |
| 2026-05-05 06:32 | 20.25607 | -100.15958 | 18208 ft | 378 kts | 22° |
| 2026-05-05 06:32 | 20.28053 | -100.14972 | 17576 ft | 374 kts | 22° |
| 2026-05-05 06:32 | 20.30475 | -100.13997 | 16990 ft | 370 kts | 22° |
| 2026-05-05 06:32 | 20.32871 | -100.13032 | 16414 ft | 366 kts | 21° |
| 2026-05-05 06:33 | 20.35242 | -100.12078 | 15857 ft | 362 kts | 21° |
| 2026-05-05 06:33 | 20.37585 | -100.11134 | 15366 ft | 357 kts | 21° |
| 2026-05-05 06:33 | 20.39875 | -100.10211 | 15261 ft | 350 kts | 21° |
| 2026-05-05 06:33 | 20.42170 | -100.09285 | 15220 ft | 353 kts | 21° |
| 2026-05-05 06:34 | 20.44444 | -100.08368 | 15199 ft | 355 kts | 21° |
| 2026-05-05 06:34 | 20.46757 | -100.07434 | 15205 ft | 355 kts | 21° |
| 2026-05-05 06:34 | 20.49068 | -100.06500 | 15209 ft | 356 kts | 21° |
| 2026-05-05 06:34 | 20.51389 | -100.05563 | 15216 ft | 356 kts | 21° |
| 2026-05-05 06:35 | 20.53710 | -100.04625 | 15226 ft | 356 kts | 21° |
| 2026-05-05 06:35 | 20.56037 | -100.03684 | 15233 ft | 357 kts | 21° |
| 2026-05-05 06:35 | 20.58358 | -100.02745 | 15226 ft | 357 kts | 21° |
| 2026-05-05 06:35 | 20.60684 | -100.01804 | 15220 ft | 357 kts | 21° |
| 2026-05-05 06:36 | 20.63013 | -100.00863 | 15215 ft | 358 kts | 21° |
| 2026-05-05 06:36 | 20.65310 | -99.99932 | 15200 ft | 358 kts | 21° |
| 2026-05-05 06:36 | 20.67667 | -99.98978 | 15183 ft | 358 kts | 21° |
| 2026-05-05 06:36 | 20.69964 | -99.98047 | 15166 ft | 358 kts | 21° |
| 2026-05-05 06:37 | 20.72295 | -99.97104 | 15146 ft | 359 kts | 21° |
| 2026-05-05 06:37 | 20.74643 | -99.96150 | 15123 ft | 359 kts | 20° |
| 2026-05-05 06:37 | 20.76977 | -99.95206 | 15102 ft | 359 kts | 20° |
| 2026-05-05 06:37 | 20.79312 | -99.94258 | 15084 ft | 359 kts | 20° |
| 2026-05-05 06:38 | 20.81648 | -99.93311 | 15060 ft | 359 kts | 20° |
| 2026-05-05 06:38 | 20.83985 | -99.92362 | 15033 ft | 359 kts | 20° |
| 2026-05-05 06:38 | 20.86323 | -99.91413 | 15006 ft | 359 kts | 20° |
| 2026-05-05 06:38 | 20.88628 | -99.90477 | 15007 ft | 359 kts | 20° |
| 2026-05-05 06:39 | 20.90965 | -99.89527 | 15009 ft | 359 kts | 20° |
| 2026-05-05 06:39 | 20.93305 | -99.88576 | 15007 ft | 360 kts | 20° |
| 2026-05-05 06:39 | 20.95646 | -99.87625 | 15007 ft | 360 kts | 20° |
| 2026-05-05 06:39 | 20.97987 | -99.86672 | 15012 ft | 360 kts | 20° |
| 2026-05-05 06:40 | 21.00332 | -99.85719 | 15013 ft | 360 kts | 20° |
| 2026-05-05 06:40 | 21.02672 | -99.84766 | 15012 ft | 360 kts | 20° |
| 2026-05-05 06:40 | 21.04224 | -99.84134 | 15010 ft | 360 kts | 20° |
| 2026-05-05 06:40 | 21.06575 | -99.83178 | 15014 ft | 360 kts | 20° |
| 2026-05-05 06:41 | 21.09688 | -99.81910 | 15016 ft | 361 kts | 20° |
| 2026-05-05 06:41 | 21.12033 | -99.80954 | 15011 ft | 361 kts | 20° |
| 2026-05-05 06:41 | 21.13592 | -99.80318 | 15006 ft | 361 kts | 20° |
| 2026-05-05 06:41 | 21.15942 | -99.79360 | 15006 ft | 361 kts | 20° |
| 2026-05-05 06:42 | 21.18297 | -99.78400 | 15016 ft | 361 kts | 20° |
| 2026-05-05 06:42 | 21.20646 | -99.77442 | 15009 ft | 362 kts | 20° |
| 2026-05-05 06:42 | 21.23003 | -99.76479 | 15005 ft | 362 kts | 20° |
| 2026-05-05 06:42 | 21.25363 | -99.75517 | 15009 ft | 362 kts | 20° |
| 2026-05-05 06:43 | 21.27714 | -99.74557 | 15014 ft | 362 kts | 20° |
| 2026-05-05 06:43 | 21.30069 | -99.73594 | 15009 ft | 362 kts | 20° |
| 2026-05-05 06:43 | 21.32426 | -99.72630 | 15000 ft | 362 kts | 20° |
| 2026-05-05 06:43 | 21.34724 | -99.71523 | 15004 ft | 362 kts | 25° |
| 2026-05-05 06:44 | 21.36991 | -99.70355 | 15011 ft | 363 kts | 24° |
| 2026-05-05 06:44 | 21.39297 | -99.69240 | 14999 ft | 362 kts | 22° |
| 2026-05-05 06:44 | 21.41598 | -99.68224 | 14995 ft | 362 kts | 18° |
| 2026-05-05 06:44 | 21.44023 | -99.67481 | 15004 ft | 362 kts | 14° |
| 2026-05-05 06:45 | 21.46454 | -99.66761 | 15003 ft | 362 kts | 14° |
| 2026-05-05 06:45 | 21.48900 | -99.66091 | 14992 ft | 362 kts | 11° |
| 2026-05-05 06:45 | 21.51401 | -99.65762 | 14999 ft | 361 kts | 359° |
| 2026-05-05 06:45 | 21.53875 | -99.66126 | 15007 ft | 359 kts | 342° |
| 2026-05-05 06:46 | 21.56132 | -99.67246 | 15004 ft | 357 kts | 324° |
| 2026-05-05 06:46 | 21.57965 | -99.69029 | 15003 ft | 355 kts | 307° |
| 2026-05-05 06:46 | 21.59210 | -99.71301 | 15000 ft | 353 kts | 290° |
| 2026-05-05 06:46 | 21.59767 | -99.73859 | 14998 ft | 353 kts | 273° |
| 2026-05-05 06:47 | 21.59596 | -99.76445 | 15005 ft | 352 kts | 256° |
| 2026-05-05 06:47 | 21.58710 | -99.78891 | 15010 ft | 353 kts | 240° |
| 2026-05-05 06:47 | 21.57108 | -99.80867 | 15000 ft | 354 kts | 217° |
| 2026-05-05 06:47 | 21.55005 | -99.82242 | 15020 ft | 354 kts | 209° |
| 2026-05-05 06:48 | 21.52799 | -99.83452 | 15015 ft | 355 kts | 205° |
| 2026-05-05 06:48 | 21.50499 | -99.84434 | 15012 ft | 355 kts | 201° |
| 2026-05-05 06:48 | 21.48216 | -99.85363 | 15003 ft | 355 kts | 201° |
| 2026-05-05 06:48 | 21.45894 | -99.86283 | 15004 ft | 355 kts | 200° |
| 2026-05-05 06:49 | 21.43577 | -99.87196 | 15011 ft | 356 kts | 200° |
| 2026-05-05 06:49 | 21.41255 | -99.88112 | 15012 ft | 356 kts | 200° |
| 2026-05-05 06:49 | 21.38929 | -99.89027 | 15004 ft | 356 kts | 200° |
| 2026-05-05 06:49 | 21.36606 | -99.89942 | 15007 ft | 356 kts | 200° |
| 2026-05-05 06:50 | 21.34273 | -99.90861 | 15018 ft | 356 kts | 200° |
| 2026-05-05 06:50 | 21.31949 | -99.91776 | 15013 ft | 356 kts | 200° |
| 2026-05-05 06:50 | 21.29616 | -99.92694 | 15003 ft | 356 kts | 200° |
| 2026-05-05 06:50 | 21.27303 | -99.93646 | 15014 ft | 356 kts | 202° |
| 2026-05-05 06:51 | 21.24961 | -99.94533 | 15019 ft | 356 kts | 199° |
| 2026-05-05 06:51 | 21.22634 | -99.95445 | 15006 ft | 356 kts | 201° |
| 2026-05-05 06:51 | 21.20308 | -99.96363 | 15010 ft | 357 kts | 200° |
| 2026-05-05 06:51 | 21.18007 | -99.97275 | 14974 ft | 357 kts | 200° |
| 2026-05-05 06:52 | 21.15672 | -99.98199 | 14878 ft | 354 kts | 200° |
| 2026-05-05 06:52 | 21.13419 | -99.99091 | 14805 ft | 336 kts | 201° |
| 2026-05-05 06:52 | 21.11274 | -99.99940 | 14737 ft | 321 kts | 201° |
| 2026-05-05 06:52 | 21.09209 | -100.00757 | 14698 ft | 314 kts | 201° |
| 2026-05-05 06:53 | 21.07155 | -100.01569 | 14695 ft | 316 kts | 200° |
| 2026-05-05 06:53 | 21.05078 | -100.02392 | 14712 ft | 318 kts | 201° |
| 2026-05-05 06:53 | 21.03014 | -100.03251 | 14718 ft | 319 kts | 199° |
| 2026-05-05 06:53 | 21.00918 | -100.04026 | 14716 ft | 318 kts | 200° |
| 2026-05-05 06:54 | 20.98843 | -100.04839 | 14620 ft | 318 kts | 200° |
| 2026-05-05 06:54 | 20.96771 | -100.05646 | 14332 ft | 311 kts | 201° |
| 2026-05-05 06:54 | 20.94781 | -100.06424 | 14195 ft | 300 kts | 201° |
| 2026-05-05 06:54 | 20.92866 | -100.07141 | 14042 ft | 290 kts | 199° |
| 2026-05-05 06:55 | 20.91004 | -100.07881 | 13869 ft | 282 kts | 202° |
| 2026-05-05 06:55 | 20.89182 | -100.08616 | 13585 ft | 278 kts | 201° |
| 2026-05-05 06:55 | 20.87370 | -100.09323 | 13264 ft | 276 kts | 201° |
| 2026-05-05 06:55 | 20.85565 | -100.09988 | 12954 ft | 273 kts | 201° |
| 2026-05-05 06:56 | 20.83802 | -100.10720 | 12626 ft | 271 kts | 202° |
| 2026-05-05 06:56 | 20.81968 | -100.11134 | 12291 ft | 272 kts | 178° |
| 2026-05-05 06:56 | 20.80171 | -100.10536 | 11931 ft | 275 kts | 148° |
| 2026-05-05 06:56 | 20.78862 | -100.09043 | 11585 ft | 278 kts | 123° |
| 2026-05-05 06:57 | 20.77885 | -100.07271 | 11262 ft | 276 kts | 124° |
| 2026-05-05 06:57 | 20.76769 | -100.05608 | 10918 ft | 274 kts | 131° |
| 2026-05-05 06:57 | 20.75470 | -100.04136 | 10595 ft | 271 kts | 141° |
| 2026-05-05 06:57 | 20.74051 | -100.02826 | 10282 ft | 269 kts | 142° |
| 2026-05-05 06:58 | 20.72590 | -100.01581 | 9954 ft | 268 kts | 146° |
| 2026-05-05 06:58 | 20.71007 | -100.00572 | 9713 ft | 260 kts | 156° |
| 2026-05-05 06:58 | 20.69433 | -99.99800 | 9684 ft | 245 kts | 160° |
| 2026-05-05 06:58 | 20.67870 | -99.99221 | 9596 ft | 230 kts | 168° |
| 2026-05-05 06:59 | 20.66354 | -99.98820 | 9419 ft | 219 kts | 169° |
| 2026-05-05 06:59 | 20.64893 | -99.98470 | 9170 ft | 212 kts | 172° |
| 2026-05-05 06:59 | 20.63465 | -99.98243 | 8947 ft | 204 kts | 176° |
| 2026-05-05 06:59 | 20.62071 | -99.98196 | 8664 ft | 199 kts | 184° |
| 2026-05-05 07:00 | 20.60687 | -99.98263 | 8305 ft | 199 kts | 185° |
| 2026-05-05 07:00 | 20.59310 | -99.98359 | 8026 ft | 192 kts | 189° |
| 2026-05-05 07:00 | 20.58175 | -99.98979 | 7690 ft | 184 kts | 232° |
| 2026-05-05 07:00 | 20.57822 | -100.00194 | 7551 ft | 168 kts | 277° |
| 2026-05-05 07:01 | 20.58176 | -100.01325 | 7244 ft | 153 kts | 292° |
| 2026-05-05 07:01 | 20.58493 | -100.02271 | 7074 ft | 127 kts | 284° |
| 2026-05-05 07:01 | 20.58732 | -100.03230 | 6925 ft | 141 kts | 281° |
| 2026-05-05 07:01 | 20.58916 | -100.04272 | 7345 ft | 145 kts | 278° |
| 2026-05-05 07:02 | 20.59070 | -100.05328 | 7683 ft | 143 kts | 277° |
| 2026-05-05 07:02 | 20.59301 | -100.06379 | 7866 ft | 151 kts | 290° |
| 2026-05-05 07:02 | 20.59713 | -100.07373 | 8099 ft | 144 kts | 288° |
| 2026-05-05 07:02 | 20.59911 | -100.08424 | 8027 ft | 148 kts | 278° |
| 2026-05-05 07:03 | 20.60092 | -100.09486 | 7890 ft | 146 kts | 281° |
| 2026-05-05 07:03 | 20.60309 | -100.10537 | 7768 ft | 145 kts | 280° |
| 2026-05-05 07:03 | 20.60482 | -100.11597 | 7606 ft | 145 kts | 280° |
| 2026-05-05 07:03 | 20.60686 | -100.12656 | 7491 ft | 146 kts | 282° |
| 2026-05-05 07:04 | 20.60860 | -100.13733 | 7258 ft | 147 kts | 279° |
| 2026-05-05 07:04 | 20.61059 | -100.14800 | 6894 ft | 146 kts | 280° |
| 2026-05-05 07:04 | 20.61236 | -100.15867 | 6602 ft | 144 kts | 282° |
| 2026-05-05 07:04 | 20.61432 | -100.16930 | 6344 ft | 148 kts | 281° |
| 2026-05-05 07:05 | 20.61617 | -100.17914 | 6303 ft | 119 kts | 282° |
| 2026-05-05 07:05 | 20.61749 | -100.18617 | 6304 ft | 72 kts | 280° |
| 2026-05-05 07:05 | 20.61834 | -100.19030 | 6304 ft | 41 kts | 292° |
| 2026-05-05 07:05 | 20.61958 | -100.19214 | 6304 ft | 14 kts | 310° |
| 2026-05-05 07:06 | 20.62026 | -100.19293 | 6304 ft | 14 kts | 319° |
| 2026-05-05 07:06 | 20.62116 | -100.19302 | 6304 ft | 13 kts | 12° |
| 2026-05-05 07:06 | 20.62192 | -100.19259 | 6304 ft | 12 kts | 72° |
| 2026-05-05 07:06 | 20.62198 | -100.19176 | 6304 ft | 10 kts | 55° |
| 2026-05-05 07:07 | 20.62254 | -100.19155 | 6304 ft | 8 kts | 4° |
| 2026-05-05 07:07 | 20.62271 | -100.19155 | 6304 ft | 0 kts | 0° |